Time;durP1;ratioP1;P1;durP2;ratioP2;P2;SDS_P1;SDS_P2;PMS_P1;PMS_P2;Temp;Humidity;BMP_temperature;BMP_pressure;BME280_temperature;BME280_humidity;BME280_pressure;Samples;Min_cycle;Max_cycle;Signal;HPM_P1;HPM_P2
2023/01/30 00:02:15;;;;;;;7.85;3.40;;;;;;;;;;5005559;28;20018;-73
2023/01/30 00:04:40;;;;;;;3.78;2.60;;;0.90;93.20;;;;;;4990503;28;20408;-74
2023/01/30 00:07:06;;;;;;;5.65;3.38;;;;;;;;;;4990564;28;20030;-73
2023/01/30 00:09:32;;;;;;;9.35;2.97;;;1.40;96.80;;;;;;4990783;28;20026;-73
2023/01/30 00:11:58;;;;;;;4.85;2.38;;;;;;;;;;4990673;28;20044;-74
2023/01/30 00:14:24;;;;;;;8.60;2.95;;;;;;;;;;4990159;28;20053;-74
2023/01/30 00:16:49;;;;;;;6.03;3.65;;;1.40;98.70;;;;;;4990560;28;20078;-74
2023/01/30 00:19:15;;;;;;;7.38;3.90;;;;;;;;;;4990656;28;20022;-73
2023/01/30 00:21:41;;;;;;;4.07;2.83;;;;;;;;;;4989787;28;20557;-73
2023/01/30 00:24:07;;;;;;;6.90;2.33;;;1.30;97.60;;;;;;4990458;28;20061;-73
2023/01/30 00:26:33;;;;;;;6.38;2.95;;;;;;;;;;4990066;28;20026;-74
2023/01/30 00:28:58;;;;;;;9.77;4.25;;;0.60;99.00;;;;;;4990117;28;20161;-73
2023/01/30 00:31:24;;;;;;;6.22;3.70;;;0.70;99.00;;;;;;4989926;28;20037;-73
2023/01/30 00:33:50;;;;;;;8.68;5.03;;;;;;;;;;4988692;28;20033;-74
2023/01/30 00:36:16;;;;;;;8.98;3.75;;;0.70;94.40;;;;;;4990629;28;20472;-73
2023/01/30 00:38:42;;;;;;;6.43;3.95;;;;;;;;;;4990291;28;20037;-73
2023/01/30 00:41:09;;;;;;;9.32;5.03;;;;;;;;;;4989903;28;20088;-72
2023/01/30 00:49:14;;;;;;;6.43;3.25;;;0.70;91.00;;;;;;4990293;28;20033;-73
2023/01/30 00:51:40;;;;;;;5.25;3.30;;;;;;;;;;4988930;28;20038;-73
2023/01/30 00:54:06;;;;;;;11.38;4.20;;;;;;;;;;4989610;28;20025;-74
2023/01/30 00:56:32;;;;;;;3.78;2.67;;;;;;;;;;4989533;28;20053;-73
2023/01/30 00:58:58;;;;;;;5.80;2.47;;;;;;;;;;4990132;28;20526;-74
2023/01/30 01:01:24;;;;;;;4.97;3.33;;;;;;;;;;4989727;28;20027;-74
2023/01/30 01:03:50;;;;;;;5.78;3.22;;;;;;;;;;4989902;28;20539;-73
2023/01/30 01:06:16;;;;;;;7.28;3.38;;;;;;;;;;4989586;28;20077;-73
2023/01/30 01:08:41;;;;;;;4.05;2.83;;;0.70;91.40;;;;;;4989757;28;20034;-74
2023/01/30 01:11:07;;;;;;;7.40;2.97;;;0.70;98.90;;;;;;4988743;28;20690;-73
2023/01/30 01:13:33;;;;;;;4.32;2.35;;;;;;;;;;4989688;28;20169;-73
2023/01/30 01:15:59;;;;;;;5.22;4.32;;;0.70;98.90;;;;;;4989695;28;20018;-74
2023/01/30 01:18:24;;;;;;;3.92;2.10;;;0.70;99.10;;;;;;4989486;28;20041;-74
2023/01/30 01:20:50;;;;;;;8.82;3.67;;;;;;;;;;4988360;28;20401;-74
2023/01/30 01:23:16;;;;;;;5.10;3.20;;;;;;;;;;4989726;28;20019;-74
2023/01/30 01:25:42;;;;;;;10.70;5.53;;;0.80;98.80;;;;;;4989094;28;20030;-73
2023/01/30 01:28:08;;;;;;;4.32;2.65;;;0.70;97.90;;;;;;4989263;28;20581;-73
2023/01/30 01:30:34;;;;;;;4.75;2.80;;;;;;;;;;4989125;28;20038;-74
2023/01/30 01:33:00;;;;;;;5.65;3.50;;;;;;;;;;4989476;28;20142;-74
2023/01/30 01:35:26;;;;;;;6.47;3.20;;;;;;;;;;4986796;28;20045;-74
2023/01/30 01:37:55;;;;;;;3.75;2.67;;;0.80;90.20;;;;;;4989064;28;20034;-74
2023/01/30 01:43:17;;;;;;;5.68;2.95;;;;;;;;;;4989314;28;20025;-73
2023/01/30 01:45:43;;;;;;;10.30;5.05;;;;;;;;;;4988933;28;20455;-73
2023/01/30 01:48:18;;;;;;;6.30;3.70;;;0.60;98.20;;;;;;4989093;28;20095;-73
2023/01/30 01:50:44;;;;;;;4.70;4.05;;;;;;;;;;4988691;28;20571;-73
2023/01/30 01:53:12;;;;;;;10.90;2.75;;;0.60;88.70;;;;;;4988704;28;20045;-74
2023/01/30 01:55:40;;;;;;;5.15;2.95;;;0.60;89.20;;;;;;4988426;28;20033;-73
2023/01/30 01:58:34;;;;;;;4.95;2.90;;;0.60;89.60;;;;;;4988807;28;20391;-74
2023/01/30 02:01:00;;;;;;;7.43;2.63;;;;;;;;;;4990177;28;20642;-73
2023/01/30 02:03:28;;;;;;;6.00;3.85;;;;;;;;;;4989073;28;20046;-73
2023/01/30 02:05:59;;;;;;;5.68;3.17;;;0.20;97.30;;;;;;4989767;28;20041;-73
2023/01/30 02:08:53;;;;;;;4.57;3.80;;;0.50;90.00;;;;;;4992298;28;20108;-73
2023/01/30 02:11:30;;;;;;;5.22;4.03;;;0.10;98.70;;;;;;4992385;28;20053;-73
2023/01/30 02:13:56;;;;;;;7.63;3.15;;;0.40;91.40;;;;;;4992897;28;20033;-73
2023/01/30 02:16:22;;;;;;;6.50;3.63;;;0.50;94.20;;;;;;5007526;28;20407;-74
2023/01/30 02:18:48;;;;;;;9.98;3.88;;;0.40;90.60;;;;;;4992578;28;20037;-74
2023/01/30 02:21:41;;;;;;;9.10;6.07;;;0.40;95.90;;;;;;4992451;28;20065;-73
2023/01/30 02:24:15;;;;;;;6.35;3.45;;;0.30;99.10;;;;;;4992104;28;20026;-73
2023/01/30 02:27:02;;;;;;;10.23;3.58;;;0.30;90.70;;;;;;5007402;28;20447;-73
2023/01/30 02:30:01;;;;;;;4.70;4.25;;;0.30;97.10;;;;;;4992141;28;20030;-73
2023/01/30 02:32:50;;;;;;;7.00;3.10;;;0.30;99.70;;;;;;4992296;28;20038;-73
2023/01/30 02:35:30;;;;;;;6.00;3.30;;;;;;;;;;4982777;28;20061;-73
2023/01/30 02:38:23;;;;;;;6.72;3.42;;;0.20;91.00;;;;;;4992324;28;20034;-73
2023/01/30 02:41:17;;;;;;;6.20;3.30;;;0.30;95.00;;;;;;4991836;28;20122;-73
2023/01/30 02:44:05;;;;;;;8.13;4.22;;;0.20;96.20;;;;;;4991843;28;20609;-73
2023/01/30 02:46:51;;;;;;;7.00;3.60;;;0.20;95.70;;;;;;4980257;28;20034;-73
2023/01/30 02:49:43;;;;;;;10.02;3.70;;;0.30;99.90;;;;;;4991980;28;20498;-73
2023/01/30 02:52:11;;;;;;;9.02;4.75;;;0.00;92.20;;;;;;4991094;28;21090;-74
2023/01/30 02:54:37;;;;;;;9.15;4.05;;;0.10;99.90;;;;;;4992151;28;20105;-73
2023/01/30 02:57:03;;;;;;;16.58;6.38;;;;;;;;;;4991763;28;20539;-73
2023/01/30 02:59:39;;;;;;;4.57;3.88;;;0.30;99.90;;;;;;4991702;28;20026;-73
2023/01/30 03:02:24;;;;;;;6.23;3.23;;;0.30;99.90;;;;;;4991756;28;20421;-73
2023/01/30 03:04:56;;;;;;;11.68;5.35;;;;;;;;;;4988614;28;20438;-73
2023/01/30 03:07:33;;;;;;;5.40;3.70;;;0.20;92.70;;;;;;4990831;28;20026;-73
2023/01/30 03:10:05;;;;;;;9.55;3.97;;;4.40;94.50;;;;;;4991515;28;20499;-74
2023/01/30 03:12:47;;;;;;;6.82;2.65;;;0.30;99.90;;;;;;4991785;28;20034;-73
2023/01/30 03:15:22;;;;;;;12.68;4.13;;;0.30;97.10;;;;;;4989773;28;20061;-73
2023/01/30 03:17:48;;;;;;;5.05;2.75;;;;;;;;;;4990734;28;20030;-73
2023/01/30 03:20:17;;;;;;;12.63;3.78;;;0.40;94.70;;;;;;4991438;28;20045;-73
2023/01/30 03:22:43;;;;;;;7.22;3.03;;;0.40;95.60;;;;;;4991251;28;20026;-73
2023/01/30 03:25:12;;;;;;;10.88;4.00;;;0.40;99.90;;;;;;4991624;28;20097;-73
2023/01/30 03:27:38;;;;;;;4.97;2.88;;;0.50;99.90;;;;;;4991345;28;20027;-74
2023/01/30 03:30:04;;;;;;;6.82;3.33;;;;;;;;;;4991286;28;20113;-73
2023/01/30 03:32:30;;;;;;;7.13;3.05;;;;;;;;;;4990616;28;20073;-74
2023/01/30 03:34:55;;;;;;;3.70;2.42;;;0.60;94.20;;;;;;4978248;28;20077;-73
2023/01/30 03:37:21;;;;;;;9.00;3.17;;;;;;;;;;4991236;28;20030;-73
2023/01/30 03:39:47;;;;;;;7.20;2.92;;;;;;;;;;4990668;28;20034;-73
2023/01/30 03:42:13;;;;;;;3.50;3.13;;;;;;;;;;4990656;28;20519;-74
2023/01/30 03:44:39;;;;;;;4.97;3.55;;;;;;;;;;4990531;28;20038;-73
2023/01/30 03:47:05;;;;;;;7.05;3.35;;;0.40;99.90;;;;;;4990999;28;20029;-74
2023/01/30 03:49:31;;;;;;;3.28;1.95;;;0.40;99.90;;;;;;4990269;28;20175;-73
2023/01/30 03:51:56;;;;;;;4.38;2.53;;;0.40;96.50;;;;;;4990528;28;20424;-73
2023/01/30 03:54:22;;;;;;;4.30;2.10;;;;;;;;;;4990734;28;20651;-73
2023/01/30 03:56:48;;;;;;;6.82;3.70;;;;;;;;;;4990917;28;20106;-73
2023/01/30 03:59:14;;;;;;;10.90;4.57;;;0.20;98.10;;;;;;4990590;28;20472;-73
2023/01/30 04:01:40;;;;;;;6.13;4.30;;;;;;;;;;4990483;28;20030;-74
2023/01/30 04:04:06;;;;;;;2.92;2.42;;;;;;;;;;4990370;28;20077;-73
2023/01/30 04:06:32;;;;;;;8.63;4.75;;;;;;;;;;4990406;28;20030;-73
2023/01/30 04:08:58;;;;;;;2.20;2.00;;;;;;;;;;4990478;28;20081;-74
2023/01/30 04:11:24;;;;;;;5.57;3.25;;;;;;;;;;4990656;28;20062;-73
2023/01/30 04:13:50;;;;;;;5.25;2.30;;;;;;;;;;4990644;28;20054;-73
2023/01/30 04:16:20;;;;;;;4.38;2.75;;;;;;;;;;4990809;28;20022;-74
2023/01/30 04:18:46;;;;;;;3.85;2.35;;;0.20;93.20;;;;;;4989961;28;20070;-73
2023/01/30 04:21:12;;;;;;;10.52;2.50;;;;;;;;;;4990019;28;20097;-73
2023/01/30 04:23:38;;;;;;;5.45;3.22;;;;;;;;;;4989774;28;20041;-74
2023/01/30 04:26:05;;;;;;;2.72;2.35;;;0.20;99.10;;;;;;4990085;28;20031;-73
2023/01/30 04:28:31;;;;;;;6.18;4.25;;;;;;;;;;4989322;28;20058;-73
2023/01/30 04:30:57;;;;;;;1.83;1.73;;;;;;;;;;4990399;28;20034;-73
2023/01/30 04:33:23;;;;;;;5.35;3.08;;;;;;;;;;4989482;28;20108;-73
2023/01/30 04:35:53;;;;;;;6.25;2.53;;;0.40;99.90;;;;;;4990025;28;20049;-73
2023/01/30 04:38:20;;;;;;;4.78;3.10;;;;;;;;;;4990058;28;20514;-73
2023/01/30 04:40:54;;;;;;;3.22;2.85;;;0.10;92.10;;;;;;4990011;28;20462;-73
2023/01/30 04:43:21;;;;;;;8.35;4.47;;;0.10;94.40;;;;;;4989443;28;20138;-73
2023/01/30 04:45:47;;;;;;;7.75;3.55;;;-0.20;94.80;;;;;;4989840;28;20069;-73
2023/01/30 04:48:14;;;;;;;6.53;4.28;;;;;;;;;;4989768;28;20034;-73
2023/01/30 04:50:41;;;;;;;6.30;3.60;;;-0.20;93.50;;;;;;4989523;28;20022;-75
2023/01/30 04:53:08;;;;;;;3.15;2.65;;;-0.20;93.90;;;;;;4989654;28;20507;-73
2023/01/30 04:55:34;;;;;;;3.03;2.73;;;0.20;98.60;;;;;;4989698;28;20064;-73
2023/01/30 04:58:00;;;;;;;3.17;2.65;;;-0.10;94.00;;;;;;4989881;28;20301;-73
2023/01/30 05:00:26;;;;;;;4.80;3.17;;;-0.10;95.40;;;;;;4989170;28;20148;-72
2023/01/30 05:02:54;;;;;;;4.25;3.35;;;-0.30;97.30;;;;;;4989279;28;20096;-73
2023/01/30 05:05:21;;;;;;;8.15;2.95;;;-0.30;99.90;;;;;;4989671;28;20027;-73
2023/01/30 05:07:46;;;;;;;6.38;3.25;;;-0.30;95.90;;;;;;4989611;28;20523;-74
2023/01/30 05:10:12;;;;;;;6.22;3.40;;;;;;;;;;4989079;28;20058;-73
2023/01/30 05:12:38;;;;;;;5.28;3.33;;;-0.10;97.30;;;;;;4988918;28;20042;-73
2023/01/30 05:15:05;;;;;;;5.65;3.33;;;-0.30;98.70;;;;;;4989485;28;20033;-73
2023/01/30 05:17:31;;;;;;;8.45;4.82;;;;;;;;;;4989344;28;20108;-74
2023/01/30 05:19:57;;;;;;;5.00;3.08;;;;;;;;;;4988851;28;20030;-73
2023/01/30 05:22:23;;;;;;;4.60;3.40;;;-0.20;96.40;;;;;;4989193;28;20041;-74
2023/01/30 05:24:49;;;;;;;5.63;3.22;;;;;;;;;;4989383;28;20023;-73
2023/01/30 05:27:15;;;;;;;4.90;3.13;;;;;;;;;;4989219;28;20030;-73
2023/01/30 05:29:41;;;;;;;3.72;2.35;;;;;;;;;;4989216;28;20149;-74
2023/01/30 05:32:07;;;;;;;5.57;3.38;;;;;;;;;;4989349;28;20038;-73
2023/01/30 05:34:33;;;;;;;3.30;3.00;;;;;;;;;;4989432;28;20029;-75
2023/01/30 05:36:59;;;;;;;2.72;2.50;;;-0.60;98.40;;;;;;4989175;28;20027;-73
2023/01/30 05:39:24;;;;;;;3.25;2.42;;;-1.10;99.90;;;;;;4989477;28;20502;-74
2023/01/30 05:41:50;;;;;;;3.90;2.88;;;-1.20;97.00;;;;;;4992980;28;20034;-73
2023/01/30 05:44:16;;;;;;;5.68;2.58;;;;;;;;;;4993084;28;20026;-75
2023/01/30 05:46:42;;;;;;;7.72;4.25;;;-1.40;99.90;;;;;;4992576;28;20456;-75
2023/01/30 05:49:08;;;;;;;6.85;3.60;;;;;;;;;;4992802;28;20113;-74
2023/01/30 05:51:33;;;;;;;5.90;3.78;;;-1.60;99.90;;;;;;4992694;28;20503;-73
2023/01/30 05:53:59;;;;;;;8.18;2.90;;;;;;;;;;4991271;28;20030;-73
2023/01/30 05:56:25;;;;;;;3.90;3.30;;;;;;;;;;4993345;28;20038;-72
2023/01/30 05:58:53;;;;;;;3.95;3.17;;;-1.80;98.30;;;;;;4992808;28;20045;-74
2023/01/30 06:01:20;;;;;;;6.22;4.38;;;-1.80;99.90;;;;;;4992598;28;20031;-75
2023/01/30 06:03:46;;;;;;;8.57;3.95;;;;;;;;;;4992557;28;20690;-73
2023/01/30 06:06:12;;;;;;;3.85;2.78;;;;;;;;;;4992810;28;20117;-72
2023/01/30 06:08:38;;;;;;;6.57;2.60;;;;;;;;;;4992982;28;20053;-73
2023/01/30 06:11:07;;;;;;;5.75;3.92;;;-1.80;99.90;;;;;;4992590;28;20519;-73
2023/01/30 06:13:33;;;;;;;6.32;2.92;;;-2.00;99.90;;;;;;4992438;28;20041;-75
2023/01/30 06:15:59;;;;;;;7.65;4.40;;;;;;;;;;4992269;28;20027;-73
2023/01/30 06:18:25;;;;;;;8.27;3.78;;;;;;;;;;4992740;28;20053;-73
2023/01/30 06:20:52;;;;;;;9.38;4.72;;;-2.20;98.50;;;;;;4992365;28;20125;-73
2023/01/30 06:23:19;;;;;;;1.92;1.77;;;-2.20;99.90;;;;;;4992731;28;20634;-76
2023/01/30 06:25:46;;;;;;;4.88;3.42;;;-2.20;99.90;;;;;;4992918;28;20035;-73
2023/01/30 06:28:12;;;;;;;2.45;2.25;;;;;;;;;;4989440;28;20518;-73
2023/01/30 06:30:38;;;;;;;6.32;2.70;;;;;;;;;;4990215;28;20037;-73
2023/01/30 06:33:04;;;;;;;8.40;4.68;;;-2.30;99.90;;;;;;4990795;28;20073;-73
2023/01/30 06:35:30;;;;;;;4.90;2.85;;;;;;;;;;4991448;28;20030;-75
2023/01/30 06:37:56;;;;;;;5.75;4.32;;;;;;;;;;4990607;28;20036;-74
2023/01/30 06:40:22;;;;;;;9.65;4.82;;;;;;;;;;4989807;28;20019;-74
2023/01/30 06:42:48;;;;;;;15.30;3.88;;;-2.40;99.60;;;;;;4988195;28;20066;-75
2023/01/30 06:45:15;;;;;;;16.20;5.57;;;-2.10;99.90;;;;;;4989929;28;20022;-73
2023/01/30 06:47:49;;;;;;;4.50;3.10;;;-2.40;99.60;;;;;;4990471;28;21007;-73
2023/01/30 06:50:16;;;;;;;13.30;3.90;;;;;;;;;;4989996;28;20030;-72
2023/01/30 06:52:43;;;;;;;5.20;3.95;;;;;;;;;;4988592;28;20092;-73
2023/01/30 06:55:09;;;;;;;12.18;5.60;;;-2.50;99.90;;;;;;5004548;28;20035;-74
2023/01/30 06:57:35;;;;;;;8.18;4.95;;;;;;;;;;4990085;28;20108;-73
2023/01/30 07:00:07;;;;;;;14.10;5.07;;;-2.40;99.90;;;;;;4989465;28;20058;-77
2023/01/30 07:02:34;;;;;;;6.10;4.38;;;-2.50;99.90;;;;;;4985112;28;20047;-75
2023/01/30 07:05:04;;;;;;;5.20;3.50;;;-2.40;99.90;;;;;;4989081;28;20120;-74
2023/01/30 07:07:30;;;;;;;3.08;2.75;;;;;;;;;;4985155;28;20034;-74
2023/01/30 07:09:56;;;;;;;3.20;2.75;;;;;;;;;;4990174;28;20037;-73
2023/01/30 07:12:23;;;;;;;6.55;3.72;;;;;;;;;;4987024;28;20066;-73
2023/01/30 07:14:49;;;;;;;11.13;4.57;;;;;;;;;;4987465;28;20399;-72
2023/01/30 07:17:16;;;;;;;8.88;6.28;;;;;;;;;;4989747;28;20046;-72
2023/01/30 07:19:43;;;;;;;12.35;5.22;;;;;;;;;;4989043;28;20062;-73
2023/01/30 07:22:09;;;;;;;5.85;4.88;;;;;;;;;;4988989;28;20124;-72
2023/01/30 07:24:35;;;;;;;8.82;7.72;;;;;;;;;;4989377;28;20029;-72
2023/01/30 07:27:01;;;;;;;7.57;5.28;;;;;;;;;;4989895;28;20310;-72
2023/01/30 07:29:27;;;;;;;8.70;5.85;;;;;;;;;;4988830;28;20035;-72
2023/01/30 07:31:53;;;;;;;5.10;4.15;;;-2.10;99.90;;;;;;4990247;28;20045;-73
2023/01/30 07:34:19;;;;;;;9.65;6.22;;;-2.00;99.90;;;;;;4990001;28;20389;-84
2023/01/30 07:36:45;;;;;;;4.60;3.22;;;;;;;;;;4989883;28;20030;-79
2023/01/30 07:39:11;;;;;;;7.25;4.72;;;;;;;;;;5013884;28;20044;-81
2023/01/30 07:41:37;;;;;;;4.25;3.65;;;;;;;;;;5022056;28;20029;-72
2023/01/30 07:44:03;;;;;;;7.07;3.17;;;;;;;;;;5023436;28;20029;-72
2023/01/30 07:46:33;;;;;;;8.30;3.70;;;-1.50;99.90;;;;;;5021512;28;20379;-74
2023/01/30 07:49:03;;;;;;;7.30;4.43;;;;;;;;;;5027296;28;20084;-79
2023/01/30 07:51:29;;;;;;;5.93;4.68;;;;;;;;;;5021642;28;20075;-84
2023/01/30 07:53:54;;;;;;;7.72;4.45;;;-0.90;99.90;;;;;;5013386;28;20029;-79
2023/01/30 07:56:20;;;;;;;11.85;4.38;;;;;;;;;;5017190;28;20021;-77
2023/01/30 07:58:46;;;;;;;15.20;7.13;;;-0.40;96.80;;;;;;5008632;28;20034;-78
2023/01/30 08:01:12;;;;;;;10.73;6.03;;;-0.40;99.90;;;;;;5016277;28;20037;-77
2023/01/30 08:03:39;;;;;;;9.77;5.68;;;;;;;;;;5009744;28;20033;-73
2023/01/30 08:06:05;;;;;;;12.80;4.55;;;;;;;;;;5011300;28;20121;-72
2023/01/30 08:08:31;;;;;;;8.85;5.90;;;;;;;;;;5011185;28;20030;-74
2023/01/30 08:10:56;;;;;;;6.25;4.15;;;-0.10;99.90;;;;;;5011294;28;20405;-73
2023/01/30 08:13:22;;;;;;;8.23;4.95;;;;;;;;;;5011072;28;20104;-78
2023/01/30 08:15:49;;;;;;;11.85;4.18;;;;;;;;;;5051650;28;20410;-74
2023/01/30 08:18:15;;;;;;;17.67;7.13;;;;;;;;;;5017951;28;20040;-74
2023/01/30 08:20:41;;;;;;;14.15;5.55;;;-0.20;99.90;;;;;;5036756;28;20037;-76
2023/01/30 08:23:07;;;;;;;15.93;5.13;;;;;;;;;;5039582;28;20079;-83
2023/01/30 08:25:34;;;;;;;9.82;6.00;;;;;;;;;;5019675;28;20657;-75
2023/01/30 08:28:00;;;;;;;9.43;4.03;;;0.50;96.40;;;;;;5022318;28;20072;-73
2023/01/30 08:30:29;;;;;;;15.25;7.05;;;1.90;91.70;;;;;;5020246;28;20030;-75
2023/01/30 08:32:55;;;;;;;7.38;4.53;;;-0.10;90.50;;;;;;5012603;28;20034;-74
2023/01/30 08:35:21;;;;;;;7.28;5.03;;;;;;;;;;5020662;28;20020;-75
2023/01/30 08:37:47;;;;;;;12.35;6.18;;;1.10;97.50;;;;;;5023302;28;20022;-76
2023/01/30 08:40:13;;;;;;;9.30;4.30;;;1.50;97.00;;;;;;5022216;28;20030;-76
2023/01/30 08:42:38;;;;;;;12.23;5.47;;;1.70;99.10;;;;;;5011944;28;20022;-76
2023/01/30 08:45:04;;;;;;;12.10;5.93;;;1.90;96.20;;;;;;5017371;28;20041;-74
2023/01/30 08:47:31;;;;;;;7.72;4.90;;;1.50;89.10;;;;;;5012124;28;20126;-74
2023/01/30 08:49:56;;;;;;;7.20;3.63;;;1.40;91.70;;;;;;5014103;28;20021;-75
2023/01/30 08:52:22;;;;;;;8.02;5.07;;;1.30;94.50;;;;;;5012589;28;20392;-77
2023/01/30 08:54:48;;;;;;;8.90;4.18;;;;;;;;;;5020067;28;20478;-74
2023/01/30 08:57:14;;;;;;;5.03;4.28;;;1.80;85.70;;;;;;5012097;28;20068;-75
2023/01/30 08:59:40;;;;;;;8.82;6.38;;;1.80;86.40;;;;;;5016215;28;20699;-74
2023/01/30 09:02:09;;;;;;;7.53;3.85;;;1.80;85.40;;;;;;5016383;28;20026;-73
2023/01/30 09:04:35;;;;;;;5.25;3.30;;;;;;;;;;5017674;28;20033;-74
2023/01/30 09:07:01;;;;;;;9.68;4.55;;;;;;;;;;5011406;28;20026;-74
2023/01/30 09:09:30;;;;;;;6.35;4.03;;;2.40;80.50;;;;;;5016372;28;20502;-74
2023/01/30 09:11:56;;;;;;;8.18;4.40;;;2.90;95.60;;;;;;5015887;28;20519;-73
2023/01/30 09:14:22;;;;;;;9.25;4.80;;;;;;;;;;5015637;28;20063;-74
2023/01/30 09:16:54;;;;;;;9.13;3.95;;;3.00;81.40;;;;;;5008416;28;20030;-75
2023/01/30 09:19:25;;;;;;;7.50;5.57;;;2.10;78.10;;;;;;5018443;28;20498;-75
2023/01/30 09:21:52;;;;;;;4.97;3.85;;;2.50;79.90;;;;;;5017531;28;20558;-75
2023/01/30 09:24:18;;;;;;;7.85;4.75;;;2.30;78.40;;;;;;5015326;28;20026;-75
2023/01/30 09:26:44;;;;;;;9.80;5.20;;;2.10;90.60;;;;;;5007682;28;20411;-76
2023/01/30 09:29:13;;;;;;;6.43;4.40;;;2.00;85.30;;;;;;5015410;28;20014;-78
2023/01/30 09:31:39;;;;;;;8.40;4.15;;;1.90;91.50;;;;;;5007930;28;20030;-76
2023/01/30 09:34:06;;;;;;;5.65;4.22;;;1.60;91.10;;;;;;5007774;28;20022;-72
2023/01/30 09:36:32;;;;;;;15.93;6.47;;;1.60;94.60;;;;;;5018640;28;20036;-82
2023/01/30 09:38:57;;;;;;;6.30;4.13;;;1.50;88.20;;;;;;5026698;28;20627;-76
2023/01/30 09:41:38;;;;;;;6.72;4.60;;;1.90;84.80;;;;;;5034955;28;20022;-76
2023/01/30 09:44:34;;;;;;;8.10;4.38;;;1.50;96.10;;;;;;5008416;28;20018;-72
2023/01/30 09:47:10;;;;;;;6.50;3.17;;;1.50;93.80;;;;;;5016432;28;20383;-74
2023/01/30 09:49:51;;;;;;;6.78;4.47;;;1.70;92.00;;;;;;5007383;28;20846;-72
2023/01/30 09:52:17;;;;;;;9.00;3.90;;;;;;;;;;5013062;28;20037;-73
2023/01/30 09:54:44;;;;;;;8.70;4.10;;;1.60;85.60;;;;;;5021423;28;20036;-75
2023/01/30 09:57:10;;;;;;;;;;;1.70;85.40;;;;;;5006275;28;20036;-75
2023/01/30 10:00:10;;;;;;;15.50;5.53;;;2.00;86.20;;;;;;5007935;28;19910;-75
2023/01/30 10:02:44;;;;;;;8.80;3.92;;;2.30;84.70;;;;;;5025259;28;20748;-75
2023/01/30 10:05:10;;;;;;;9.35;4.55;;;3.20;95.20;;;;;;5009778;28;20450;-75
2023/01/30 10:07:53;;;;;;;10.02;3.90;;;2.60;80.60;;;;;;5019183;28;20029;-75
2023/01/30 10:10:37;;;;;;;15.07;4.32;;;3.10;86.20;;;;;;5009788;28;20030;-75
2023/01/30 10:13:03;;;;;;;10.15;4.80;;;;;;;;;;5027042;28;20047;-75
2023/01/30 10:15:32;;;;;;;9.88;4.60;;;4.10;74.90;;;;;;5020546;28;20025;-75
2023/01/30 10:18:20;;;;;;;10.38;4.43;;;3.50;74.00;;;;;;5019481;28;20551;-75
2023/01/30 10:20:46;;;;;;;13.43;4.97;;;;;;;;;;5017656;28;20053;-76
2023/01/30 10:23:33;;;;;;;8.13;4.07;;;4.10;71.10;;;;;;5021708;28;20030;-74
2023/01/30 10:26:08;;;;;;;10.60;5.18;;;4.10;72.00;;;;;;5026809;28;20026;-76
2023/01/30 10:29:04;;;;;;;12.70;4.57;;;3.90;72.10;;;;;;5023256;28;20069;-75
2023/01/30 10:31:39;;;;;;;6.65;4.20;;;4.90;75.80;;;;;;5010701;28;20026;-75
2023/01/30 10:34:11;;;;;;;10.57;4.50;;;3.90;91.40;;;;;;5010985;28;20038;-76
2023/01/30 10:37:08;;;;;;;10.82;4.88;;;4.10;74.90;;;;;;5026500;28;20021;-75
2023/01/30 10:40:02;;;;;;;7.43;4.40;;;3.80;91.20;;;;;;5019483;28;20034;-76
2023/01/30 10:42:38;;;;;;;6.03;4.57;;;4.00;75.00;;;;;;5013152;28;20057;-76
2023/01/30 10:45:14;;;;;;;7.15;4.15;;;3.60;74.30;;;;;;5010504;28;20038;-75
2023/01/30 10:48:06;;;;;;;11.43;4.57;;;3.50;76.20;;;;;;5010542;28;20026;-76
2023/01/30 10:50:52;;;;;;;10.07;3.85;;;3.30;76.00;;;;;;5010164;28;20284;-76
2023/01/30 10:53:24;;;;;;;7.32;3.67;;;3.10;77.30;;;;;;5021244;28;20038;-75
2023/01/30 10:56:18;;;;;;;8.00;4.65;;;3.10;80.10;;;;;;5022831;28;20089;-76
2023/01/30 10:58:44;;;;;;;10.88;4.53;;;;;;;;;;5023281;28;20061;-76
2023/01/30 11:01:24;;;;;;;9.63;5.18;;;3.00;78.10;;;;;;5024359;28;20164;-76
2023/01/30 11:03:54;;;;;;;17.60;5.63;;;3.50;88.10;;;;;;5018805;28;20431;-76
2023/01/30 11:06:24;;;;;;;9.93;4.05;;;3.50;93.30;;;;;;5025202;28;20029;-76
2023/01/30 11:08:51;;;;;;;14.95;5.53;;;3.20;93.20;;;;;;5022840;28;20113;-75
2023/01/30 11:11:25;;;;;;;9.02;4.60;;;3.90;76.60;;;;;;5023443;28;20028;-74
2023/01/30 11:14:06;;;;;;;8.98;4.55;;;4.20;74.60;;;;;;5018128;28;20806;-75
2023/01/30 11:16:46;;;;;;;12.48;4.78;;;5.00;89.10;;;;;;5008821;28;20041;-72
2023/01/30 11:19:14;;;;;;;12.40;5.45;;;5.40;89.40;;;;;;5014182;28;20037;-89
2023/01/30 11:21:41;;;;;;;9.00;4.88;;;;;;;;;;5015663;28;20053;-87
2023/01/30 11:24:40;;;;;;;10.82;4.35;;;5.50;70.10;;;;;;5012654;28;20037;-79
2023/01/30 11:27:25;;;;;;;10.88;5.70;;;5.60;70.90;;;;;;4978936;28;20038;-76
2023/01/30 11:30:20;;;;;;;5.97;4.63;;;5.70;68.70;;;;;;4979855;28;20066;-75
2023/01/30 11:32:48;;;;;;;8.75;4.10;;;5.90;68.20;;;;;;4977087;28;20038;-74
2023/01/30 11:35:13;;;;;;;8.73;3.88;;;6.40;83.10;;;;;;4983568;28;20041;-75
2023/01/30 11:37:42;;;;;;;11.32;4.65;;;7.00;65.60;;;;;;4987254;28;20046;-75
2023/01/30 11:40:16;;;;;;;10.75;5.07;;;7.20;60.80;;;;;;4987373;28;20023;-75
2023/01/30 11:42:50;;;;;;;13.70;4.82;;;7.80;62.30;;;;;;4986611;28;20038;-75
2023/01/30 11:45:19;;;;;;;11.93;7.03;;;8.60;61.00;;;;;;4986584;28;20026;-75
2023/01/30 11:47:57;;;;;;;10.77;5.75;;;9.20;58.90;;;;;;4986916;28;20074;-75
2023/01/30 11:50:29;;;;;;;11.07;5.25;;;9.60;60.60;;;;;;4986553;28;20046;-75
2023/01/30 11:52:55;;;;;;;10.85;5.07;;;;;;;;;;4984988;28;20070;-75
2023/01/30 11:55:21;;;;;;;11.48;5.05;;;;;;;;;;4986378;28;20062;-75
2023/01/30 11:57:53;;;;;;;7.05;3.83;;;9.80;54.30;;;;;;4986341;28;20081;-75
2023/01/30 12:00:20;;;;;;;9.93;5.38;;;10.20;69.80;;;;;;4986666;28;20380;-75
2023/01/30 12:02:47;;;;;;;8.90;5.18;;;9.90;55.60;;;;;;4998233;28;20056;-76
2023/01/30 12:05:33;;;;;;;7.97;5.30;;;9.80;68.80;;;;;;5012774;28;20021;-76
2023/01/30 12:08:20;;;;;;;10.15;4.78;;;8.90;72.70;;;;;;5011709;28;20034;-78
2023/01/30 12:10:54;;;;;;;10.57;4.75;;;9.00;55.40;;;;;;4996008;28;20848;-78
2023/01/30 12:13:34;;;;;;;10.15;4.88;;;8.70;56.60;;;;;;5022410;28;20129;-76
2023/01/30 12:16:25;;;;;;;9.07;4.20;;;8.30;58.80;;;;;;5027691;28;20033;-80
2023/01/30 12:18:54;;;;;;;8.25;4.68;;;7.80;59.80;;;;;;5019323;28;20137;-79
2023/01/30 12:21:44;;;;;;;9.80;5.70;;;7.50;60.60;;;;;;5025973;28;20052;-78
2023/01/30 12:24:31;;;;;;;8.52;4.95;;;7.10;61.00;;;;;;5007219;28;20022;-78
2023/01/30 12:27:11;;;;;;;11.20;4.32;;;6.80;77.80;;;;;;5010520;28;20053;-80
2023/01/30 12:30:02;;;;;;;13.50;5.18;;;6.60;60.40;;;;;;5023126;28;20033;-75
2023/01/30 12:32:32;;;;;;;10.60;5.43;;;7.20;63.30;;;;;;4998486;28;20038;-75
2023/01/30 12:34:58;;;;;;;9.45;4.78;;;;;;;;;;5009562;28;20028;-75
2023/01/30 12:37:24;;;;;;;10.07;4.85;;;;;;;;;;5024449;28;20426;-75
2023/01/30 12:39:56;;;;;;;14.15;6.35;;;6.80;77.60;;;;;;5009292;28;20029;-75
2023/01/30 12:42:39;;;;;;;8.73;4.00;;;6.60;61.20;;;;;;5016858;28;20056;-77
2023/01/30 12:45:21;;;;;;;11.63;5.90;;;6.60;62.00;;;;;;4998065;28;20022;-77
2023/01/30 12:47:56;;;;;;;14.50;5.32;;;6.30;66.50;;;;;;5012671;28;20090;-75
2023/01/30 12:50:36;;;;;;;12.82;4.65;;;6.20;80.00;;;;;;5024923;28;20022;-75
2023/01/30 12:53:40;;;;;;;7.97;4.97;;;6.30;69.40;;;;;;5010297;28;20037;-75
2023/01/30 12:56:11;;;;;;;10.57;5.97;;;6.10;63.60;;;;;;5008437;28;20018;-75
2023/01/30 12:58:37;;;;;;;27.27;8.77;;;;;;;;;;5008051;28;20066;-75
2023/01/30 13:01:14;;;;;;;14.23;7.28;;;6.00;63.60;;;;;;5008012;28;20042;-75
2023/01/30 13:03:54;;;;;;;15.70;6.80;;;5.90;64.60;;;;;;5008061;28;20522;-75
2023/01/30 13:06:32;;;;;;;10.95;5.47;;;4.80;64.50;;;;;;5008639;28;20022;-75
2023/01/30 13:09:27;;;;;;;18.77;5.85;;;;;;;;;;5007583;28;20033;-75
2023/01/30 13:12:36;;;;;;;9.07;5.68;;;5.90;65.40;;;;;;4990124;28;20122;-75
2023/01/30 13:15:07;;;;;;;14.18;5.93;;;5.40;66.40;;;;;;4985289;28;20499;-78
2023/01/30 13:17:39;;;;;;;13.95;5.65;;;5.30;67.10;;;;;;5001216;28;20029;-77
2023/01/30 13:20:23;;;;;;;14.75;6.47;;;5.20;75.90;;;;;;4985390;28;20118;-73
2023/01/30 13:22:54;;;;;;;12.30;6.50;;;4.90;87.10;;;;;;4984596;28;20085;-73
2023/01/30 13:25:20;;;;;;;13.30;5.82;;;;;;;;;;4985220;28;20551;-73
2023/01/30 13:27:57;;;;;;;13.25;6.35;;;4.40;75.40;;;;;;4985630;28;20403;-72
2023/01/30 13:30:26;;;;;;;12.02;6.45;;;2.70;72.00;;;;;;4968271;28;20531;-72
2023/01/30 13:32:58;;;;;;;11.60;6.13;;;4.30;89.70;;;;;;4985560;28;20061;-72
2023/01/30 13:35:30;;;;;;;9.43;4.60;;;4.40;73.80;;;;;;4985903;28;20022;-73
2023/01/30 13:37:57;;;;;;;15.70;7.45;;;4.40;73.10;;;;;;4985949;28;20065;-73
2023/01/30 13:40:33;;;;;;;14.70;5.80;;;4.30;76.70;;;;;;4985045;28;20038;-76
2023/01/30 13:43:01;;;;;;;11.55;6.07;;;;;;;;;;4985434;28;20026;-74
2023/01/30 13:45:39;;;;;;;10.95;5.25;;;4.80;74.40;;;;;;4985857;28;20050;-73
2023/01/30 13:48:25;;;;;;;9.50;4.95;;;4.90;73.60;;;;;;4995781;28;20038;-73
2023/01/30 13:50:51;;;;;;;14.07;5.10;;;;;;;;;;5007417;28;20064;-73
2023/01/30 13:53:22;;;;;;;8.13;4.80;;;5.10;73.30;;;;;;5017473;28;20061;-73
2023/01/30 13:55:57;;;;;;;10.23;4.38;;;5.10;73.80;;;;;;5022503;28;20491;-73
2023/01/30 13:58:44;;;;;;;12.65;5.50;;;5.20;73.50;;;;;;5007430;28;20113;-73